createdAt,value
2023-03-26T00:00:06.135Z,8.20
2023-03-26T00:04:13.848Z,8.20
2023-03-26T00:08:22.378Z,8.21
2023-03-26T00:12:30.013Z,8.21
2023-03-26T00:16:37.618Z,8.18
2023-03-26T00:20:45.801Z,8.14
2023-03-26T00:24:53.719Z,8.09
2023-03-26T00:29:03.970Z,8.02
2023-03-26T00:33:17.351Z,7.95
2023-03-26T00:37:26.648Z,7.90
2023-03-26T00:41:37.460Z,7.88
2023-03-26T00:45:44.929Z,7.84
2023-03-26T00:49:52.616Z,7.78
2023-03-26T00:54:00.909Z,7.73
2023-03-26T00:58:10.367Z,7.66
2023-03-26T01:02:21.184Z,7.61
2023-03-26T01:06:33.164Z,7.58
2023-03-26T01:10:42.265Z,7.61
2023-03-26T01:14:52.054Z,7.64
2023-03-26T01:19:00.971Z,7.65
2023-03-26T01:23:10.140Z,7.66
2023-03-26T01:27:25.843Z,7.66
2023-03-26T01:31:39.773Z,7.65
2023-03-26T01:35:51.414Z,7.66
2023-03-26T01:40:07.309Z,7.70
2023-03-26T01:44:21.188Z,7.72
2023-03-26T01:48:35.114Z,7.74
2023-03-26T01:52:42.981Z,7.75
2023-03-26T01:56:57.063Z,7.76
2023-03-26T02:01:12.885Z,7.77
2023-03-26T02:05:24.300Z,7.82
2023-03-26T02:09:35.056Z,7.90
2023-03-26T02:13:44.849Z,7.96
2023-03-26T02:17:53.563Z,7.99
2023-03-26T02:22:02.487Z,7.99
2023-03-26T02:26:12.221Z,7.97
2023-03-26T02:30:25.743Z,7.93
2023-03-26T02:34:33.800Z,7.90
2023-03-26T02:38:41.751Z,7.92
2023-03-26T02:42:49.632Z,7.97
2023-03-26T02:46:58.393Z,8.01
2023-03-26T02:51:07.797Z,8.02
2023-03-26T02:55:15.492Z,8.02
2023-03-26T02:59:23.397Z,8.02
2023-03-26T03:03:31.254Z,8.01
2023-03-26T03:07:39.195Z,8.01
2023-03-26T03:11:47.632Z,8.02
2023-03-26T03:15:56.541Z,8.05
2023-03-26T03:20:06.216Z,8.04
2023-03-26T03:24:14.109Z,8.01
2023-03-26T03:28:22.795Z,7.98
2023-03-26T03:32:30.819Z,8.00
2023-03-26T03:36:39.523Z,8.05
2023-03-26T03:40:47.601Z,8.10
2023-03-26T03:44:55.501Z,8.15
2023-03-26T03:49:03.996Z,8.23
2023-03-26T03:53:16.570Z,8.31
2023-03-26T03:57:24.385Z,8.37
2023-03-26T04:01:33.137Z,8.39
2023-03-26T04:05:41.311Z,8.40
2023-03-26T04:09:48.461Z,8.41
2023-03-26T04:13:56.050Z,8.40
2023-03-26T04:18:04.026Z,8.41
2023-03-26T04:22:12.225Z,8.40
2023-03-26T04:26:22.352Z,8.42
2023-03-26T04:30:31.691Z,8.44
2023-03-26T04:34:39.880Z,8.41
2023-03-26T04:38:49.383Z,8.37
2023-03-26T04:43:00.163Z,8.31
2023-03-26T04:47:08.073Z,8.21
2023-03-26T04:51:18.619Z,8.13
2023-03-26T04:55:27.716Z,8.10
2023-03-26T04:59:37.525Z,8.09
2023-03-26T05:03:46.066Z,8.04
2023-03-26T05:07:53.727Z,7.97
2023-03-26T05:12:01.490Z,7.93
2023-03-26T05:16:10.512Z,7.90
2023-03-26T05:20:22.048Z,7.87
2023-03-26T05:24:29.805Z,7.89
2023-03-26T05:28:37.345Z,7.97
2023-03-26T05:32:44.794Z,8.03
2023-03-26T05:36:53.169Z,8.07
2023-03-26T05:41:06.387Z,8.06
2023-03-26T05:45:16.707Z,8.04
2023-03-26T05:49:24.581Z,8.02
2023-03-26T05:53:32.866Z,8.00
2023-03-26T05:57:40.496Z,8.02
2023-03-26T06:01:51.227Z,8.10
2023-03-26T06:05:59.764Z,8.26
2023-03-26T06:10:09.652Z,8.41
2023-03-26T06:14:17.260Z,8.50
2023-03-26T06:18:25.731Z,8.55
2023-03-26T06:22:34.405Z,8.57
2023-03-26T06:26:42.278Z,8.60
2023-03-26T06:30:50.343Z,8.64
2023-03-26T06:34:58.241Z,8.72
2023-03-26T06:39:07.586Z,8.84
2023-03-26T06:43:16.083Z,8.92
2023-03-26T06:47:24.160Z,8.99
2023-03-26T06:51:32.292Z,9.02
2023-03-26T06:55:39.944Z,9.04
2023-03-26T06:59:48.632Z,9.04
2023-03-26T07:03:57.146Z,9.04
2023-03-26T07:08:08.407Z,9.06
2023-03-26T07:12:18.503Z,9.10
2023-03-26T07:16:28.738Z,9.19
2023-03-26T07:20:38.066Z,9.31
2023-03-26T07:24:47.949Z,9.42
2023-03-26T07:29:04.429Z,9.49
2023-03-26T07:33:16.376Z,9.57
2023-03-26T07:37:36.950Z,9.61
2023-03-26T07:41:48.004Z,9.67
2023-03-26T07:45:58.655Z,9.70
2023-03-26T07:50:09.969Z,9.74
2023-03-26T07:54:19.312Z,9.80
2023-03-26T07:58:41.408Z,9.83
2023-03-26T08:03:25.135Z,9.92
2023-03-26T08:07:45.271Z,10.06
2023-03-26T08:11:59.176Z,10.15
2023-03-26T08:16:12.812Z,10.26
2023-03-26T08:20:34.404Z,10.32
2023-03-26T08:24:49.434Z,10.30
2023-03-26T08:29:05.933Z,10.34
2023-03-26T08:33:20.804Z,10.44
2023-03-26T08:37:29.515Z,10.61
2023-03-26T08:42:12.769Z,10.76
2023-03-26T08:46:40.839Z,10.87
2023-03-26T08:51:08.014Z,11.02
2023-03-26T08:55:52.094Z,11.06
2023-03-26T09:04:51.811Z,10.95
2023-03-26T09:09:43.284Z,10.86
2023-03-26T09:14:23.093Z,10.83
2023-03-26T09:19:01.515Z,10.85
2023-03-26T09:23:28.152Z,10.95
2023-03-26T09:27:46.633Z,11.09
2023-03-26T09:32:31.478Z,11.23
2023-03-26T09:36:59.304Z,11.39
2023-03-26T09:41:12.487Z,11.46
2023-03-26T09:45:48.276Z,11.40
2023-03-26T09:50:04.204Z,11.02
2023-03-26T09:54:52.372Z,10.44
2023-03-26T09:59:32.124Z,10.05
2023-03-26T10:03:53.570Z,9.89
2023-03-26T10:08:13.025Z,9.84
2023-03-26T10:12:29.296Z,9.85
2023-03-26T10:16:46.506Z,9.89
2023-03-26T10:21:01.388Z,9.98
2023-03-26T10:25:27.466Z,10.05
2023-03-26T10:29:53.131Z,10.09
2023-03-26T10:34:28.687Z,10.14
2023-03-26T10:38:53.013Z,10.28
2023-03-26T10:44:05.544Z,10.39
2023-03-26T10:48:42.536Z,10.56
2023-03-26T10:52:53.945Z,10.79
2023-03-26T10:57:03.967Z,11.02
2023-03-26T11:01:20.412Z,11.19
2023-03-26T11:05:39.748Z,11.29
2023-03-26T11:09:52.985Z,11.38
2023-03-26T11:14:10.282Z,11.56
2023-03-26T11:18:21.080Z,11.69
2023-03-26T11:22:36.251Z,11.84
2023-03-26T11:26:53.248Z,12.00
2023-03-26T11:31:09.121Z,12.15
2023-03-26T11:35:40.400Z,12.30
2023-03-26T11:39:56.464Z,12.61
2023-03-26T11:44:08.936Z,12.88
2023-03-26T11:48:20.595Z,12.86
2023-03-26T11:52:29.156Z,12.66
2023-03-26T11:56:39.288Z,12.42
2023-03-26T12:00:49.377Z,12.21
2023-03-26T12:05:12.486Z,12.05
2023-03-26T12:09:21.395Z,12.02
2023-03-26T12:13:38.136Z,12.03
2023-03-26T12:17:52.625Z,12.09
2023-03-26T12:22:00.495Z,12.19
2023-03-26T12:26:22.484Z,12.24
2023-03-26T12:30:34.040Z,12.35
2023-03-26T12:34:41.934Z,12.46
2023-03-26T12:39:42.757Z,12.56
2023-03-26T12:44:52.999Z,12.64
2023-03-26T12:48:03.945Z,12.77
2023-03-26T12:52:33.266Z,12.79
2023-03-26T12:56:44.131Z,12.70
2023-03-26T13:00:57.045Z,12.70
2023-03-26T13:05:15.109Z,12.73
2023-03-26T13:09:41.611Z,12.68
2023-03-26T13:14:01.006Z,12.63
2023-03-26T13:18:21.663Z,12.71
2023-03-26T13:22:35.365Z,13.00
2023-03-26T13:26:53.362Z,13.06
2023-03-26T13:31:06.684Z,13.05
2023-03-26T13:35:31.575Z,13.10
2023-03-26T13:39:46.991Z,13.24
2023-03-26T13:44:04.100Z,13.28
2023-03-26T13:48:17.439Z,13.30
2023-03-26T13:52:28.294Z,13.24
2023-03-26T13:56:38.240Z,13.05
2023-03-26T14:00:56.332Z,12.96
2023-03-26T14:05:08.486Z,12.92
2023-03-26T14:09:20.993Z,12.88
2023-03-26T14:13:33.124Z,12.90
2023-03-26T14:17:47.114Z,12.92
2023-03-26T14:22:09.273Z,12.90
2023-03-26T14:26:27.258Z,12.84
2023-03-26T14:30:56.642Z,12.73
2023-03-26T14:35:13.611Z,12.79
2023-03-26T14:39:40.840Z,13.02
2023-03-26T14:44:20.137Z,13.12
2023-03-26T14:48:51.872Z,13.17
2023-03-26T14:53:02.965Z,13.13
2023-03-26T14:57:49.809Z,13.08
2023-03-26T15:02:30.320Z,13.02
2023-03-26T15:07:09.014Z,12.93
2023-03-26T15:11:23.023Z,12.79
2023-03-26T15:16:08.661Z,12.64
2023-03-26T15:20:34.766Z,12.31
2023-03-26T15:25:32.065Z,11.95
2023-03-26T15:29:57.012Z,11.66
2023-03-26T15:34:38.592Z,11.49
2023-03-26T15:39:24.797Z,11.34
2023-03-26T15:44:24.786Z,11.27
2023-03-26T15:48:35.701Z,11.18
2023-03-26T15:52:52.045Z,11.07
2023-03-26T15:57:20.404Z,11.03
2023-03-26T16:01:47.530Z,11.02
2023-03-26T16:06:15.915Z,10.94
2023-03-26T16:10:29.618Z,10.91
2023-03-26T16:14:46.123Z,10.93
2023-03-26T16:19:00.712Z,10.93
2023-03-26T16:23:11.737Z,10.94
2023-03-26T16:27:34.371Z,10.97
2023-03-26T16:32:05.829Z,11.00
2023-03-26T16:36:34.857Z,11.00
2023-03-26T16:40:58.298Z,11.01
2023-03-26T16:45:19.168Z,11.00
2023-03-26T16:49:34.403Z,10.98
2023-03-26T16:53:46.783Z,10.97
2023-03-26T16:57:59.633Z,10.94
2023-03-26T17:02:13.865Z,10.90
2023-03-26T17:06:31.223Z,10.82
2023-03-26T17:10:44.513Z,10.76
2023-03-26T17:15:06.263Z,10.75
2023-03-26T17:19:23.226Z,10.76
2023-03-26T17:23:39.627Z,10.76
2023-03-26T17:27:52.224Z,10.75
2023-03-26T17:32:09.498Z,10.72
2023-03-26T17:36:33.659Z,10.63
2023-03-26T17:40:55.066Z,10.51
2023-03-26T17:45:05.490Z,10.41
2023-03-26T17:49:19.532Z,10.31
2023-03-26T17:53:31.420Z,10.20
2023-03-26T17:57:44.493Z,10.11
2023-03-26T18:01:56.124Z,10.04
2023-03-26T18:06:08.843Z,10.02
2023-03-26T18:10:34.238Z,10.01
2023-03-26T18:15:02.864Z,10.00
2023-03-26T18:19:22.297Z,9.99
2023-03-26T18:23:36.283Z,9.94
2023-03-26T18:27:44.760Z,9.88
2023-03-26T18:31:57.933Z,9.82
2023-03-26T18:36:07.410Z,9.75
2023-03-26T18:40:19.711Z,9.68
2023-03-26T18:44:28.228Z,9.63
2023-03-26T18:48:36.447Z,9.62
2023-03-26T18:52:44.859Z,9.62
2023-03-26T18:56:53.341Z,9.62
2023-03-26T19:01:04.115Z,9.61
2023-03-26T19:05:17.038Z,9.59
2023-03-26T19:09:31.746Z,9.53
2023-03-26T19:13:43.327Z,9.45
2023-03-26T19:17:56.951Z,9.41
2023-03-26T19:22:05.556Z,9.39
2023-03-26T19:26:14.232Z,9.41
2023-03-26T19:30:29.648Z,9.42
2023-03-26T19:34:41.235Z,9.43
2023-03-26T19:38:54.267Z,9.41
2023-03-26T19:43:03.778Z,9.38
2023-03-26T19:47:21.208Z,9.35
2023-03-26T19:51:37.069Z,9.31
2023-03-26T19:55:52.131Z,9.30
2023-03-26T20:00:01.214Z,9.33
2023-03-26T20:04:11.725Z,9.33
2023-03-26T20:08:20.370Z,9.31
2023-03-26T20:12:28.736Z,9.27
2023-03-26T20:16:37.492Z,9.23
2023-03-26T20:20:45.197Z,9.19
2023-03-26T20:24:54.906Z,9.16
2023-03-26T20:29:05.991Z,9.16
2023-03-26T20:33:19.380Z,9.17
2023-03-26T20:37:27.631Z,9.17
2023-03-26T20:41:36.040Z,9.15
2023-03-26T20:45:44.918Z,9.12
2023-03-26T20:49:52.871Z,9.08
2023-03-26T20:54:00.727Z,9.01
2023-03-26T20:58:10.037Z,8.93
2023-03-26T21:02:18.159Z,8.83
2023-03-26T21:06:26.408Z,8.76
2023-03-26T21:10:36.519Z,8.72
2023-03-26T21:14:45.619Z,8.70
2023-03-26T21:18:55.332Z,8.66
2023-03-26T21:23:09.234Z,8.61
2023-03-26T21:27:26.432Z,8.56
2023-03-26T21:31:38.404Z,8.49
2023-03-26T21:35:52.029Z,8.46
2023-03-26T21:40:12.649Z,8.45
2023-03-26T21:44:22.135Z,8.45
2023-03-26T21:48:32.242Z,8.45
2023-03-26T21:52:51.187Z,8.42
2023-03-26T21:57:14.867Z,8.39
2023-03-26T22:01:29.485Z,8.37
2023-03-26T22:05:41.671Z,8.42
2023-03-26T22:09:50.854Z,8.44
2023-03-26T22:13:58.564Z,8.44
2023-03-26T22:18:07.579Z,8.42
2023-03-26T22:22:15.681Z,8.40
2023-03-26T22:26:25.268Z,8.36
2023-03-26T22:30:32.776Z,8.31
2023-03-26T22:34:41.535Z,8.31
2023-03-26T22:38:53.289Z,8.32
2023-03-26T22:43:02.413Z,8.32
2023-03-26T22:47:10.670Z,8.29
2023-03-26T22:51:18.878Z,8.24
2023-03-26T22:55:28.193Z,8.20
2023-03-26T22:59:37.185Z,8.16
2023-03-26T23:03:44.977Z,8.15
2023-03-26T23:07:53.024Z,8.14
2023-03-26T23:12:01.392Z,8.09
2023-03-26T23:16:11.300Z,8.05
2023-03-26T23:20:20.463Z,8.01
2023-03-26T23:24:28.338Z,7.98
2023-03-26T23:28:36.960Z,7.99
2023-03-26T23:32:45.032Z,8.00
2023-03-26T23:36:53.946Z,8.02
2023-03-26T23:41:02.128Z,8.05
2023-03-26T23:45:12.637Z,8.03
2023-03-26T23:49:22.065Z,7.97
2023-03-26T23:53:33.528Z,7.92
2023-03-26T23:57:42.221Z,7.91
